createdAt,value
2023-02-05T00:01:47.012Z,13.60
2023-02-05T00:04:48.681Z,13.40
2023-02-05T00:07:52.146Z,13.70
2023-02-05T00:10:54.074Z,13.50
2023-02-05T00:13:55.711Z,13.70
2023-02-05T00:16:57.358Z,14.00
2023-02-05T00:19:58.902Z,11.10
2023-02-05T00:23:00.514Z,13.30
2023-02-05T00:26:03.052Z,13.70
2023-02-05T00:29:05.175Z,13.00
2023-02-05T00:32:06.733Z,13.30
2023-02-05T00:35:08.714Z,13.20
2023-02-05T00:38:10.504Z,12.60
2023-02-05T00:41:12.876Z,13.90
2023-02-05T00:44:14.407Z,13.70
2023-02-05T00:47:16.332Z,14.50
2023-02-05T00:50:18.112Z,14.20
2023-02-05T00:53:21.282Z,13.40
2023-02-05T00:56:22.918Z,16.80
2023-02-05T01:02:26.452Z,19.60
2023-02-05T01:05:28.213Z,16.30
2023-02-05T01:08:30.224Z,12.60
2023-02-05T01:11:32.088Z,12.20
2023-02-05T01:17:36.322Z,11.70
2023-02-05T01:20:40.357Z,11.70
2023-02-05T01:23:42.132Z,12.80
2023-02-05T01:26:43.867Z,13.80
2023-02-05T01:29:48.673Z,12.50
2023-02-05T01:32:50.328Z,13.40
2023-02-05T01:35:52.846Z,12.30
2023-02-05T01:38:54.411Z,14.20
2023-02-05T01:41:56.100Z,15.60
2023-02-05T01:45:22.672Z,14.40
2023-02-05T01:48:28.437Z,12.30
2023-02-05T01:51:31.120Z,16.00
2023-02-05T01:54:36.162Z,17.90
2023-02-05T01:57:41.003Z,16.40
2023-02-05T02:00:42.886Z,15.00
2023-02-05T02:06:45.991Z,13.00
2023-02-05T02:09:48.403Z,11.50
2023-02-05T02:12:50.113Z,11.40
2023-02-05T02:15:52.232Z,12.20
2023-02-05T02:18:54.496Z,11.30
2023-02-05T02:22:26.058Z,11.40
2023-02-05T02:25:38.153Z,11.40
2023-02-05T02:28:51.210Z,11.20
2023-02-05T02:32:00.574Z,11.30
2023-02-05T02:35:26.619Z,10.90
2023-02-05T02:38:41.590Z,11.80
2023-02-05T02:41:44.568Z,11.30
2023-02-05T02:44:55.169Z,12.30
2023-02-05T02:47:59.024Z,12.70
2023-02-05T02:51:01.755Z,12.40
2023-02-05T02:54:07.655Z,10.50
2023-02-05T02:57:10.303Z,11.80
2023-02-05T03:00:14.396Z,10.20
2023-02-05T03:03:17.608Z,11.10
2023-02-05T03:06:20.267Z,10.10
2023-02-05T03:09:31.463Z,10.40
2023-02-05T03:12:33.068Z,9.50
2023-02-05T03:15:35.058Z,10.50
2023-02-05T03:18:38.106Z,9.50
2023-02-05T03:21:50.228Z,9.60
2023-02-05T03:24:51.794Z,9.80
2023-02-05T03:27:54.051Z,9.20
2023-02-05T03:31:23.792Z,8.10
2023-02-05T03:34:52.776Z,8.30
2023-02-05T03:38:05.400Z,9.70
2023-02-05T03:41:18.081Z,8.80
2023-02-05T03:44:41.464Z,9.10
2023-02-05T03:48:05.382Z,7.50
2023-02-05T03:51:30.520Z,8.60
2023-02-05T03:54:38.545Z,9.30
2023-02-05T03:57:45.172Z,8.30
2023-02-05T04:00:46.921Z,10.30
2023-02-05T04:03:48.696Z,9.60
2023-02-05T04:06:52.262Z,10.40
2023-02-05T04:09:53.802Z,11.00
2023-02-05T04:12:55.519Z,11.30
2023-02-05T04:15:57.123Z,11.50
2023-02-05T04:18:58.673Z,11.60
2023-02-05T04:22:00.175Z,11.50
2023-02-05T04:25:01.782Z,10.80
2023-02-05T04:28:04.003Z,11.80
2023-02-05T04:31:09.757Z,10.50
2023-02-05T04:34:11.415Z,10.00
2023-02-05T04:37:12.998Z,10.70
2023-02-05T04:40:14.743Z,10.90
2023-02-05T04:46:17.902Z,9.50
2023-02-05T04:49:19.947Z,9.50
2023-02-05T04:52:21.786Z,8.90
2023-02-05T04:55:23.658Z,11.20
2023-02-05T05:01:26.896Z,7.50
2023-02-05T05:04:28.526Z,9.20
2023-02-05T05:07:30.774Z,9.00
2023-02-05T05:10:32.448Z,9.60
2023-02-05T05:13:34.802Z,9.80
2023-02-05T05:16:36.291Z,8.70
2023-02-05T05:19:37.806Z,9.20
2023-02-05T05:22:39.304Z,9.20
2023-02-05T05:25:45.842Z,8.60
2023-02-05T05:28:47.838Z,8.40
2023-02-05T05:34:53.259Z,8.80
2023-02-05T05:37:57.237Z,10.20
2023-02-05T05:40:58.963Z,8.70
2023-02-05T05:44:00.496Z,10.40
2023-02-05T05:47:02.178Z,10.40
2023-02-05T05:50:03.935Z,9.90
2023-02-05T05:53:05.534Z,9.20
2023-02-05T05:56:07.103Z,10.50
2023-02-05T05:59:08.753Z,9.60
2023-02-05T06:02:10.397Z,9.90
2023-02-05T06:05:12.098Z,10.80
2023-02-05T06:08:13.796Z,10.10
2023-02-05T06:11:15.439Z,10.10
2023-02-05T06:14:17.270Z,9.30
2023-02-05T06:17:19.342Z,10.30
2023-02-05T06:20:21.051Z,9.60
2023-02-05T06:23:22.604Z,9.90
2023-02-05T06:26:24.310Z,9.40
2023-02-05T06:29:25.815Z,9.60
2023-02-05T06:32:27.551Z,14.20
2023-02-05T06:35:29.537Z,12.50
2023-02-05T06:38:31.112Z,10.20
2023-02-05T06:41:32.656Z,10.90
2023-02-05T06:44:34.234Z,10.30
2023-02-05T06:47:35.744Z,10.10
2023-02-05T06:50:37.452Z,9.10
2023-02-05T06:53:39.090Z,9.80
2023-02-05T06:56:41.709Z,8.80
2023-02-05T06:59:43.418Z,10.20
2023-02-05T07:02:45.223Z,9.10
2023-02-05T07:08:48.436Z,11.00
2023-02-05T07:11:50.157Z,10.00
2023-02-05T07:14:51.699Z,9.70
2023-02-05T07:17:53.723Z,10.50
2023-02-05T07:20:55.240Z,11.60
2023-02-05T07:23:56.927Z,10.80
2023-02-05T07:26:58.462Z,11.50
2023-02-05T07:30:00.058Z,11.10
2023-02-05T07:33:01.995Z,10.70
2023-02-05T07:36:05.241Z,12.70
2023-02-05T07:39:06.761Z,10.30
2023-02-05T07:42:08.432Z,10.70
2023-02-05T07:45:10.325Z,10.20
2023-02-05T07:51:16.746Z,9.30
2023-02-05T07:54:18.302Z,9.20
2023-02-05T07:57:19.956Z,10.20
2023-02-05T08:00:21.670Z,10.90
2023-02-05T08:03:23.540Z,12.70
2023-02-05T08:09:26.591Z,14.70
2023-02-05T08:12:28.239Z,14.20
2023-02-05T08:18:31.908Z,12.20
2023-02-05T08:21:34.133Z,13.20
2023-02-05T08:24:35.670Z,15.60
2023-02-05T08:27:38.083Z,11.00
2023-02-05T08:30:40.228Z,12.80
2023-02-05T08:33:42.041Z,10.70
2023-02-05T08:39:45.526Z,11.10
2023-02-05T08:42:47.146Z,9.90
2023-02-05T08:45:48.810Z,11.20
2023-02-05T08:48:51.040Z,9.60
2023-02-05T08:51:52.661Z,10.70
2023-02-05T08:54:54.324Z,10.50
2023-02-05T08:57:56.094Z,10.40
2023-02-05T09:04:04.647Z,10.40
2023-02-05T09:07:06.279Z,9.30
2023-02-05T09:10:10.693Z,10.30
2023-02-05T09:13:12.311Z,10.80
2023-02-05T09:16:14.223Z,8.90
2023-02-05T09:19:15.977Z,10.60
2023-02-05T09:25:19.370Z,11.00
2023-02-05T09:28:21.131Z,9.00
2023-02-05T09:31:22.768Z,8.90
2023-02-05T09:37:26.085Z,8.20
2023-02-05T09:40:32.949Z,7.60
2023-02-05T09:43:53.335Z,6.00
2023-02-05T09:47:32.452Z,4.80
2023-02-05T09:50:34.262Z,5.40
2023-02-05T09:56:40.041Z,4.70
2023-02-05T09:59:44.749Z,5.00
2023-02-05T10:03:02.083Z,5.50
2023-02-05T10:06:09.679Z,6.20
2023-02-05T10:09:39.558Z,4.90
2023-02-05T10:12:50.778Z,6.20
2023-02-05T10:16:12.714Z,7.10
2023-02-05T10:19:23.194Z,6.50
2023-02-05T10:22:37.976Z,6.20
2023-02-05T10:25:52.865Z,6.20
2023-02-05T10:29:06.552Z,5.60
2023-02-05T10:32:22.997Z,5.20
2023-02-05T10:35:24.718Z,5.40
2023-02-05T10:41:35.597Z,5.60
2023-02-05T10:44:45.383Z,5.40
2023-02-05T10:48:05.533Z,5.10
2023-02-05T10:51:09.980Z,6.20
2023-02-05T10:54:23.590Z,7.60
2023-02-05T10:57:28.903Z,6.80
2023-02-05T11:00:30.658Z,6.70
2023-02-05T11:06:40.908Z,6.90
2023-02-05T11:09:42.452Z,7.50
2023-02-05T11:12:46.523Z,7.80
2023-02-05T11:15:55.861Z,6.90
2023-02-05T11:19:00.129Z,7.00
2023-02-05T11:22:04.323Z,7.80
2023-02-05T11:25:18.186Z,7.40
2023-02-05T11:28:27.180Z,6.80
2023-02-05T11:31:32.788Z,6.60
2023-02-05T11:34:34.404Z,6.70
2023-02-05T11:37:39.279Z,6.80
2023-02-05T11:40:40.841Z,7.80
2023-02-05T11:43:50.650Z,10.30
2023-02-05T11:46:53.302Z,8.00
2023-02-05T11:49:55.491Z,7.20
2023-02-05T11:53:07.425Z,11.20
2023-02-05T11:59:21.525Z,12.00
2023-02-05T12:02:26.322Z,9.20
2023-02-05T12:05:44.644Z,9.50
2023-02-05T12:08:49.604Z,9.30
2023-02-05T12:12:10.068Z,9.50
2023-02-05T12:15:28.019Z,7.80
2023-02-05T12:18:37.731Z,8.60
2023-02-05T12:21:58.296Z,8.70
2023-02-05T12:25:02.975Z,7.50
2023-02-05T12:28:23.374Z,10.30
2023-02-05T12:32:03.459Z,7.80
2023-02-05T12:35:10.830Z,7.30
2023-02-05T12:38:13.521Z,7.30
2023-02-05T12:41:51.703Z,7.00
2023-02-05T12:45:17.855Z,7.20
2023-02-05T12:48:36.862Z,12.70
2023-02-05T12:51:47.575Z,12.10
2023-02-05T12:55:14.794Z,11.50
2023-02-05T12:58:17.044Z,9.50
2023-02-05T13:01:23.141Z,8.20
2023-02-05T13:04:44.197Z,10.10
2023-02-05T13:07:50.909Z,8.90
2023-02-05T13:10:56.648Z,9.20
2023-02-05T13:14:02.159Z,8.10
2023-02-05T13:17:19.402Z,8.80
2023-02-05T13:20:31.522Z,8.00
2023-02-05T13:23:35.553Z,7.70
2023-02-05T13:26:42.429Z,7.90
2023-02-05T13:29:49.031Z,7.90
2023-02-05T13:32:54.141Z,8.40
2023-02-05T13:36:23.737Z,8.80
2023-02-05T13:39:47.201Z,8.30
2023-02-05T13:43:04.262Z,8.10
2023-02-05T13:46:24.872Z,8.20
2023-02-05T13:49:41.582Z,7.70
2023-02-05T13:53:03.361Z,8.20
2023-02-05T13:56:44.285Z,8.80
2023-02-05T13:59:49.042Z,9.20
2023-02-05T14:02:54.619Z,9.00
2023-02-05T14:05:56.833Z,8.90
2023-02-05T14:09:10.307Z,8.60
2023-02-05T14:12:21.450Z,8.50
2023-02-05T14:15:24.683Z,9.30
2023-02-05T14:18:47.674Z,9.40
2023-02-05T14:21:55.631Z,9.20
2023-02-05T14:24:57.217Z,8.50
2023-02-05T14:27:58.831Z,9.20
2023-02-05T14:31:02.341Z,9.70
2023-02-05T14:34:28.903Z,10.80
2023-02-05T14:37:35.344Z,10.70
2023-02-05T14:40:37.595Z,10.80
2023-02-05T14:43:41.206Z,10.60
2023-02-05T14:46:45.206Z,11.00
2023-02-05T14:49:48.410Z,8.90
2023-02-05T14:52:56.960Z,10.10
2023-02-05T14:55:58.675Z,10.30
2023-02-05T14:59:05.780Z,10.10
2023-02-05T15:02:46.420Z,11.50
2023-02-05T15:06:04.622Z,10.40
2023-02-05T15:09:19.754Z,11.10
2023-02-05T15:12:55.465Z,10.10
2023-02-05T15:16:09.348Z,12.00
2023-02-05T15:19:11.705Z,11.70
2023-02-05T15:22:28.612Z,14.40
2023-02-05T15:25:38.223Z,13.40
2023-02-05T15:28:53.928Z,13.20
2023-02-05T15:32:01.085Z,11.90
2023-02-05T15:35:06.123Z,11.80
2023-02-05T15:38:41.564Z,12.60
2023-02-05T15:41:43.831Z,12.90
2023-02-05T15:44:45.388Z,12.80
2023-02-05T15:48:00.727Z,13.30
2023-02-05T15:51:12.749Z,14.40
2023-02-05T15:54:20.117Z,12.70
2023-02-05T15:57:27.684Z,13.30
2023-02-05T16:00:30.686Z,14.40
2023-02-05T16:03:36.910Z,15.60
2023-02-05T16:06:38.433Z,14.10
2023-02-05T16:09:46.800Z,16.50
2023-02-05T16:13:06.635Z,18.10
2023-02-05T16:16:15.210Z,16.50
2023-02-05T16:19:21.914Z,16.80
2023-02-05T16:22:29.655Z,15.40
2023-02-05T16:25:40.746Z,15.60
2023-02-05T16:28:46.613Z,14.90
2023-02-05T16:31:48.397Z,16.60
2023-02-05T16:34:50.128Z,15.90
2023-02-05T16:37:52.064Z,15.60
2023-02-05T16:43:58.684Z,14.90
2023-02-05T16:47:09.436Z,14.60
2023-02-05T16:50:37.691Z,16.60
2023-02-05T16:53:49.244Z,15.20
2023-02-05T16:56:58.485Z,17.20
2023-02-05T17:00:04.036Z,16.60
2023-02-05T17:03:14.878Z,18.40
2023-02-05T17:06:18.260Z,16.50
2023-02-05T17:09:46.089Z,19.90
2023-02-05T17:12:52.421Z,16.40
2023-02-05T17:15:54.047Z,18.80
2023-02-05T17:19:04.377Z,18.40
2023-02-05T17:22:15.220Z,17.70
2023-02-05T17:25:16.958Z,18.90
2023-02-05T17:28:21.373Z,19.50
2023-02-05T17:31:24.739Z,18.60
2023-02-05T17:34:26.413Z,20.60
2023-02-05T17:37:28.224Z,20.20
2023-02-05T17:40:29.911Z,21.40
2023-02-05T17:43:31.572Z,22.70
2023-02-05T17:46:33.130Z,21.20
2023-02-05T17:49:34.695Z,22.70
2023-02-05T17:55:39.123Z,15.90
2023-02-05T17:58:41.052Z,22.90
2023-02-05T18:04:44.373Z,21.00
2023-02-05T18:10:48.382Z,21.60
2023-02-05T18:13:50.102Z,23.50
2023-02-05T18:16:51.649Z,22.70
2023-02-05T18:19:53.507Z,21.40
2023-02-05T18:25:59.496Z,22.20
2023-02-05T18:29:01.105Z,21.90
2023-02-05T18:32:03.998Z,21.90
2023-02-05T18:35:05.897Z,22.80
2023-02-05T18:38:07.509Z,23.30
2023-02-05T18:41:16.132Z,21.10
2023-02-05T18:44:17.739Z,22.40
2023-02-05T18:47:19.374Z,21.20
2023-02-05T18:50:20.874Z,21.90
2023-02-05T18:53:22.698Z,24.00
2023-02-05T18:56:27.249Z,22.40
2023-02-05T18:59:28.842Z,21.30
2023-02-05T19:02:30.365Z,19.90
2023-02-05T19:05:34.675Z,21.80
2023-02-05T19:08:36.997Z,22.80
2023-02-05T19:11:38.613Z,23.90
2023-02-05T19:14:40.485Z,24.50
2023-02-05T19:20:45.696Z,18.20
2023-02-05T19:23:53.587Z,22.80
2023-02-05T19:26:55.873Z,20.90
2023-02-05T19:29:57.652Z,22.60
2023-02-05T19:32:59.302Z,22.50
2023-02-05T19:36:01.760Z,22.00
2023-02-05T19:39:05.928Z,22.60
2023-02-05T19:42:07.494Z,22.20
2023-02-05T19:45:09.268Z,21.10
2023-02-05T19:48:12.120Z,21.40
2023-02-05T19:51:17.273Z,21.20
2023-02-05T19:54:21.220Z,21.20
2023-02-05T19:57:23.369Z,22.00
2023-02-05T20:00:25.249Z,21.60
2023-02-05T20:03:30.286Z,19.50
2023-02-05T20:06:31.915Z,21.00
2023-02-05T20:09:33.591Z,19.60
2023-02-05T20:12:35.123Z,20.10
2023-02-05T20:15:37.067Z,20.00
2023-02-05T20:21:40.760Z,19.20
2023-02-05T20:24:42.410Z,19.50
2023-02-05T20:27:43.994Z,19.60
2023-02-05T20:30:45.638Z,18.70
2023-02-05T20:33:47.262Z,19.40
2023-02-05T20:37:00.247Z,20.00
2023-02-05T20:40:02.001Z,20.90
2023-02-05T20:43:03.646Z,19.70
2023-02-05T20:46:05.592Z,20.40
2023-02-05T20:49:07.716Z,18.50
2023-02-05T20:52:11.946Z,19.90
2023-02-05T20:55:13.567Z,20.70
2023-02-05T20:58:15.185Z,20.10
2023-02-05T21:04:19.622Z,18.20
2023-02-05T21:07:21.296Z,18.80
2023-02-05T21:10:23.019Z,18.50
2023-02-05T21:13:24.698Z,17.50
2023-02-05T21:16:28.121Z,16.70
2023-02-05T21:19:29.793Z,19.00
2023-02-05T21:22:31.335Z,18.20
2023-02-05T21:25:35.691Z,19.40
2023-02-05T21:28:37.331Z,17.20
2023-02-05T21:31:50.630Z,16.90
2023-02-05T21:34:52.448Z,16.50
2023-02-05T21:37:54.038Z,17.30
2023-02-05T21:40:55.557Z,17.30
2023-02-05T21:43:59.369Z,18.90
2023-02-05T21:47:01.175Z,17.60
2023-02-05T21:50:03.779Z,17.60
2023-02-05T21:53:05.654Z,17.00
2023-02-05T21:56:10.289Z,17.30
2023-02-05T21:59:12.762Z,17.90
2023-02-05T22:02:14.803Z,17.50
2023-02-05T22:05:16.544Z,17.40
2023-02-05T22:08:18.185Z,17.60
2023-02-05T22:11:21.640Z,18.40
2023-02-05T22:14:23.376Z,18.10
2023-02-05T22:17:25.180Z,17.60
2023-02-05T22:20:26.783Z,17.00
2023-02-05T22:23:28.855Z,19.10
2023-02-05T22:26:35.601Z,18.80
2023-02-05T22:29:37.277Z,19.40
2023-02-05T22:32:38.994Z,20.00
2023-02-05T22:35:43.191Z,17.30
2023-02-05T22:38:44.869Z,17.80
2023-02-05T22:41:46.434Z,19.20
2023-02-05T22:44:48.270Z,20.60
2023-02-05T22:50:51.486Z,18.90
2023-02-05T22:53:54.468Z,20.80
2023-02-05T22:56:56.055Z,19.40
2023-02-05T22:59:57.779Z,18.30
2023-02-05T23:03:00.304Z,19.50
2023-02-05T23:06:08.204Z,18.80
2023-02-05T23:09:15.578Z,18.20
2023-02-05T23:12:17.430Z,19.90
2023-02-05T23:15:19.032Z,19.00
2023-02-05T23:18:20.644Z,20.90
2023-02-05T23:21:24.433Z,19.70
2023-02-05T23:24:26.117Z,18.10
2023-02-05T23:27:28.749Z,18.50
2023-02-05T23:30:30.479Z,16.20
2023-02-05T23:33:33.396Z,17.10
2023-02-05T23:36:35.173Z,14.70
2023-02-05T23:39:37.097Z,15.20
2023-02-05T23:45:40.148Z,15.90
2023-02-05T23:48:41.667Z,17.10
2023-02-05T23:51:43.510Z,19.80
2023-02-05T23:57:46.601Z,21.30
